Time;durP1;ratioP1;P1;durP2;ratioP2;P2;SDS_P1;SDS_P2;PMS_P1;PMS_P2;Temp;Humidity;BMP_temperature;BMP_pressure;BME280_temperature;BME280_humidity;BME280_pressure;Samples;Min_cycle;Max_cycle;Signal;HPM_P1;HPM_P2
2023/05/12 00:01:47;;;;;;;5.82;3.90;;;;;;;10.13;100.00;96978.19;5046977;28;20701;-60
2023/05/12 00:04:13;;;;;;;6.35;4.13;;;;;;;10.18;100.00;96982.81;5063028;28;20115;-60
2023/05/12 00:06:40;;;;;;;7.25;3.55;;;;;;;10.18;100.00;96976.59;5054194;28;20032;-61
2023/05/12 00:09:06;;;;;;;5.75;3.83;;;;;;;10.24;100.00;96975.53;5057285;28;20048;-61
2023/05/12 00:11:33;;;;;;;5.95;4.00;;;;;;;10.28;100.00;96965.81;5062471;28;20045;-61
2023/05/12 00:13:59;;;;;;;6.13;4.25;;;;;;;10.08;100.00;96972.75;5058606;28;20068;-60
2023/05/12 00:16:26;;;;;;;7.47;4.55;;;;;;;10.01;100.00;96972.97;5043361;28;20037;-60
2023/05/12 00:18:52;;;;;;;8.30;4.85;;;;;;;10.05;100.00;96967.84;5048964;28;20049;-60
2023/05/12 00:21:19;;;;;;;7.22;4.53;;;;;;;10.06;100.00;96968.66;5043815;28;20390;-60
2023/05/12 00:23:45;;;;;;;6.80;4.32;;;;;;;10.07;100.00;96967.59;5063212;28;20032;-61
2023/05/12 00:26:12;;;;;;;7.30;4.68;;;;;;;10.01;100.00;96966.72;5050146;28;20064;-61
2023/05/12 00:28:39;;;;;;;7.65;4.43;;;;;;;9.99;100.00;96966.19;5045556;28;20412;-60
2023/05/12 00:31:06;;;;;;;6.60;4.55;;;;;;;9.94;100.00;96969.66;5046818;28;20049;-60
2023/05/12 00:33:32;;;;;;;6.90;4.72;;;;;;;9.87;100.00;96966.34;5052791;28;20065;-61
2023/05/12 00:36:00;;;;;;;7.75;4.50;;;;;;;9.72;100.00;96959.72;5050093;28;20057;-60
2023/05/12 00:38:26;;;;;;;7.50;5.22;;;;;;;9.60;100.00;96964.47;5042170;28;20140;-61
2023/05/12 00:40:53;;;;;;;7.28;4.88;;;;;;;9.51;100.00;96966.81;5054456;28;20532;-60
2023/05/12 00:43:19;;;;;;;6.88;4.40;;;;;;;9.42;100.00;96969.16;5047752;28;20048;-60
2023/05/12 00:45:46;;;;;;;7.47;4.78;;;;;;;9.50;100.00;96968.72;5051435;28;20080;-60
2023/05/12 00:48:12;;;;;;;6.53;4.35;;;;;;;9.52;100.00;96967.63;5054044;28;20052;-60
2023/05/12 00:50:39;;;;;;;9.23;5.15;;;;;;;9.37;100.00;96967.22;5045813;28;20037;-59
2023/05/12 00:53:06;;;;;;;8.27;5.85;;;;;;;9.36;100.00;96973.69;5045605;28;20036;-60
2023/05/12 00:55:33;;;;;;;12.23;6.10;;;;;;;9.43;100.00;96970.78;5054978;28;20116;-60
2023/05/12 00:57:59;;;;;;;8.73;5.88;;;;;;;9.48;100.00;96978.16;5049676;28;20072;-60
2023/05/12 01:00:26;;;;;;;7.47;4.95;;;;;;;9.50;100.00;96974.13;5045800;28;20041;-60
2023/05/12 01:02:57;;;;;;;7.60;5.32;;;;;;;9.54;100.00;96968.22;5049265;28;20048;-60
2023/05/12 01:05:30;;;;;;;9.75;5.65;;;;;;;9.53;100.00;96967.38;5048613;28;20690;-61
2023/05/12 01:07:58;;;;;;;9.52;5.97;;;;;;;9.53;100.00;96967.38;5044474;28;20037;-60
2023/05/12 01:10:25;;;;;;;8.50;5.88;;;;;;;9.53;100.00;96966.56;5044336;28;20578;-60
2023/05/12 01:12:52;;;;;;;8.85;6.03;;;;;;;9.47;100.00;96966.50;5045390;28;20129;-60
2023/05/12 01:15:18;;;;;;;9.27;5.28;;;;;;;9.56;100.00;96971.47;5048821;28;20041;-60
2023/05/12 01:17:52;;;;;;;10.15;5.43;;;;;;;9.59;100.00;96960.16;5054929;28;20125;-60
2023/05/12 01:20:24;;;;;;;7.80;5.07;;;;;;;9.62;100.00;96959.66;5056616;28;20045;-58
2023/05/12 01:22:52;;;;;;;9.75;5.28;;;;;;;9.60;100.00;96959.06;5043826;28;20504;-60
2023/05/12 01:25:22;;;;;;;7.43;4.97;;;;;;;9.55;100.00;96953.63;5042015;28;20122;-60
2023/05/12 01:27:49;;;;;;;8.32;5.65;;;;;;;9.58;100.00;96959.31;5039217;28;20083;-61
2023/05/12 01:30:17;;;;;;;9.23;5.80;;;;;;;9.41;100.00;96961.31;5052058;28;20048;-60
2023/05/12 01:32:44;;;;;;;8.40;6.00;;;;;;;9.36;100.00;96968.28;5037510;28;20052;-60
2023/05/12 01:35:11;;;;;;;8.98;5.55;;;;;;;9.40;100.00;96970.50;5050747;28;20041;-60
2023/05/12 01:37:45;;;;;;;10.13;5.90;;;;;;;9.40;100.00;96974.00;5049771;28;20091;-60
2023/05/12 01:40:11;;;;;;;9.07;5.43;;;;;;;9.45;100.00;96971.38;5042680;28;20071;-60
2023/05/12 01:42:40;;;;;;;9.18;6.18;;;;;;;9.52;100.00;96967.63;5041042;28;20577;-60
2023/05/12 01:45:08;;;;;;;9.15;5.60;;;;;;;9.55;100.00;96969.84;5041437;28;20061;-60
2023/05/12 01:47:35;;;;;;;8.75;6.20;;;;;;;9.56;100.00;96960.66;5045367;28;20102;-60
2023/05/12 01:50:06;;;;;;;;;;;;;;;9.64;100.00;96965.59;5059578;28;20048;-60
2023/05/12 01:52:33;;;;;;;9.50;6.53;;;;;;;9.72;100.00;96959.72;5047273;28;20015;-61
2023/05/12 01:55:00;;;;;;;9.20;5.97;;;;;;;9.74;100.00;96954.88;5045762;28;20036;-60
2023/05/12 01:57:32;;;;;;;;;;;;;;;9.84;100.00;96964.16;5042288;28;20040;-60
2023/05/12 02:00:00;;;;;;;9.38;6.35;;;;;;;9.88;100.00;96960.66;5048366;28;19920;-61
2023/05/12 02:02:28;;;;;;;10.68;7.05;;;;;;;9.89;100.00;96958.78;5054449;28;20056;-61
2023/05/12 02:04:55;;;;;;;9.10;6.82;;;;;;;9.93;100.00;96959.91;5056853;28;20028;-60
2023/05/12 02:07:22;;;;;;;9.88;7.15;;;;;;;9.92;100.00;96960.16;5043758;28;20045;-60
2023/05/12 02:09:48;;;;;;;11.75;7.10;;;;;;;9.89;100.00;96953.38;5044016;28;20075;-60
2023/05/12 02:12:15;;;;;;;10.70;7.47;;;;;;;9.89;100.00;96953.38;5055970;28;20037;-61
2023/05/12 02:14:42;;;;;;;10.35;7.65;;;;;;;9.80;100.00;96949.53;5057805;28;20041;-60
2023/05/12 02:17:08;;;;;;;11.38;7.38;;;;;;;9.80;100.00;96947.63;5058130;28;20053;-60
2023/05/12 02:19:35;;;;;;;10.35;7.15;;;;;;;9.87;100.00;96959.03;5055439;28;20053;-60
2023/05/12 02:22:02;;;;;;;11.20;8.10;;;;;;;9.89;100.00;96951.47;5051183;28;20420;-61
2023/05/12 02:24:28;;;;;;;11.25;8.45;;;;;;;9.89;100.00;96959.59;5042968;28;20041;-60
2023/05/12 02:26:55;;;;;;;12.60;8.25;;;;;;;9.89;100.00;96948.78;5048097;28;20037;-60
2023/05/12 02:29:21;;;;;;;13.50;7.93;;;;;;;9.90;100.00;96946.91;5046429;28;20519;-60
2023/05/12 02:31:48;;;;;;;12.85;8.90;;;;;;;9.93;100.00;96948.25;5055134;28;20045;-60
2023/05/12 02:34:16;;;;;;;15.32;9.25;;;;;;;9.94;100.00;96941.78;5052847;28;20041;-60
2023/05/12 02:36:42;;;;;;;16.25;9.02;;;;;;;9.94;100.00;96942.59;5048363;28;20048;-60
2023/05/12 02:39:10;;;;;;;11.52;8.70;;;;;;;10.00;100.00;96951.56;5053195;28;20684;-60
2023/05/12 02:41:37;;;;;;;12.13;8.60;;;;;;;9.98;100.00;96943.72;5055438;28;20068;-60
2023/05/12 02:44:03;;;;;;;12.27;8.13;;;;;;;9.98;100.00;96942.88;5047115;28;20116;-60
2023/05/12 02:46:30;;;;;;;12.35;9.13;;;;;;;10.02;100.00;96950.25;5057400;28;20151;-61
2023/05/12 02:48:56;;;;;;;12.40;8.55;;;;;;;9.99;100.00;96949.94;5054426;28;20164;-60
2023/05/12 02:51:23;;;;;;;13.65;9.00;;;;;;;9.97;100.00;96941.25;5054168;28;20102;-61
2023/05/12 02:53:49;;;;;;;13.73;9.38;;;;;;;9.97;100.00;96939.38;5038617;28;20048;-61
2023/05/12 02:56:16;;;;;;;11.68;8.60;;;;;;;9.98;100.00;96938.31;5049074;28;20037;-60
2023/05/12 02:58:43;;;;;;;14.20;10.18;;;;;;;9.97;100.00;96947.50;5048593;28;20120;-60
2023/05/12 03:01:10;;;;;;;14.65;9.13;;;;;;;9.95;100.00;96944.22;5049895;28;20090;-60
2023/05/12 03:03:38;;;;;;;15.43;9.82;;;;;;;9.91;100.00;96945.00;5057171;28;20057;-60
2023/05/12 03:06:06;;;;;;;16.80;10.23;;;;;;;9.90;100.00;96946.91;5056253;28;20118;-60
2023/05/12 03:08:33;;;;;;;17.13;10.88;;;;;;;10.00;100.00;96943.47;5052836;28;20040;-60
2023/05/12 03:10:59;;;;;;;19.88;10.80;;;;;;;10.02;100.00;96944.84;5054512;28;20040;-60
2023/05/12 03:13:26;;;;;;;18.60;11.23;;;;;;;10.02;100.00;96942.13;5060125;28;20735;-60
2023/05/12 03:15:53;;;;;;;20.08;11.40;;;;;;;10.00;100.00;96941.56;5053187;28;20065;-60
2023/05/12 03:18:19;;;;;;;17.67;9.82;;;;;;;10.10;100.00;96942.72;5057431;28;20068;-60
2023/05/12 03:20:46;;;;;;;19.02;10.90;;;;;;;10.06;100.00;96941.63;5061665;28;20668;-60
2023/05/12 03:23:13;;;;;;;18.15;12.00;;;;;;;10.02;100.00;96942.13;5055702;28;20048;-61
2023/05/12 03:25:39;;;;;;;19.88;11.55;;;;;;;9.98;100.00;96945.59;5045007;28;20128;-60
2023/05/12 03:28:06;;;;;;;20.73;12.35;;;;;;;9.95;100.00;96938.81;5061054;28;20285;-60
2023/05/12 03:30:33;;;;;;;18.38;12.27;;;;;;;9.86;100.00;96943.91;5059303;28;20121;-60
2023/05/12 03:32:59;;;;;;;22.13;12.95;;;;;;;9.77;100.00;96942.75;5043262;28;20045;-60
2023/05/12 03:35:26;;;;;;;27.02;13.20;;;;;;;9.82;100.00;96944.66;5047976;28;20045;-60
2023/05/12 03:37:52;;;;;;;21.88;12.40;;;;;;;9.80;100.00;96949.53;5046091;28;20090;-60
2023/05/12 03:40:19;;;;;;;21.92;12.65;;;;;;;9.77;100.00;96961.66;5049149;28;20049;-60
2023/05/12 03:42:46;;;;;;;25.95;13.57;;;;;;;9.70;100.00;96950.25;5044721;28;20048;-60
2023/05/12 03:45:13;;;;;;;25.98;13.77;;;;;;;9.67;100.00;96950.75;5056222;28;20044;-60
2023/05/12 03:47:39;;;;;;;25.40;14.18;;;;;;;9.73;100.00;96949.75;5048147;28;20046;-61
2023/05/12 03:50:07;;;;;;;24.85;14.43;;;;;;;9.78;100.00;96954.34;5052455;28;20086;-60
2023/05/12 03:52:37;;;;;;;21.25;12.23;;;;;;;9.85;100.00;96947.66;5056196;28;20049;-60
2023/05/12 03:55:05;;;;;;;24.67;13.45;;;;;;;9.70;100.00;96947.53;5064029;28;20081;-61
2023/05/12 03:57:33;;;;;;;21.70;12.30;;;;;;;9.64;100.00;96946.69;5055536;28;20124;-61
2023/05/12 03:59:59;;;;;;;25.10;13.23;;;;;;;9.55;100.00;96948.22;5056739;28;20705;-60
2023/05/12 04:02:26;;;;;;;21.95;10.75;;;;;;;9.61;100.00;96949.88;5054331;28;20109;-60
2023/05/12 04:04:53;;;;;;;23.85;12.00;;;;;;;9.65;100.00;96956.41;5063482;28;20584;-59
2023/05/12 04:07:20;;;;;;;20.13;11.70;;;;;;;9.70;100.00;96953.75;5053513;28;20053;-60
2023/05/12 04:09:46;;;;;;;22.23;12.02;;;;;;;9.76;100.00;96950.03;5053333;28;20106;-60
2023/05/12 04:12:13;;;;;;;21.05;11.75;;;;;;;9.81;100.00;96943.03;5051111;28;20041;-61
2023/05/12 04:14:39;;;;;;;17.50;10.35;;;;;;;9.78;100.00;96952.47;5041003;28;20066;-60
2023/05/12 04:17:08;;;;;;;18.05;10.65;;;;;;;9.76;100.00;96949.22;5041145;28;20049;-60
2023/05/12 04:19:35;;;;;;;21.13;11.45;;;;;;;9.79;100.00;96943.28;5039099;28;20057;-60
2023/05/12 04:22:01;;;;;;;19.10;10.52;;;;;;;9.75;100.00;96944.88;5046140;28;20059;-61
2023/05/12 04:24:30;;;;;;;17.90;10.73;;;;;;;9.71;100.00;96944.59;5048066;28;20110;-60
2023/05/12 04:26:56;;;;;;;19.92;11.18;;;;;;;9.66;100.00;96944.50;5046268;28;20049;-60
2023/05/12 04:29:23;;;;;;;20.92;11.60;;;;;;;9.69;100.00;96946.72;5043231;28;20072;-61
2023/05/12 04:31:50;;;;;;;21.60;11.75;;;;;;;9.69;100.00;96946.72;5043613;28;20870;-61
2023/05/12 04:34:16;;;;;;;17.80;10.07;;;;;;;9.68;100.00;96946.97;5042913;28;20072;-61
2023/05/12 04:36:43;;;;;;;21.33;11.50;;;;;;;9.69;100.00;96949.41;5054372;28;20052;-61
2023/05/12 04:39:10;;;;;;;19.10;11.32;;;;;;;9.75;100.00;96953.00;5047550;28;20045;-60
2023/05/12 04:41:36;;;;;;;17.75;11.13;;;;;;;9.84;100.00;96962.25;5044837;28;20060;-61
2023/05/12 04:44:03;;;;;;;23.52;11.68;;;;;;;9.84;100.00;96964.97;5047714;28;20073;-60
2023/05/12 04:46:30;;;;;;;21.50;12.50;;;;;;;9.87;100.00;96959.03;5052828;28;20067;-60
2023/05/12 04:48:56;;;;;;;18.98;11.10;;;;;;;9.80;100.00;96957.63;5049561;28;20124;-60
2023/05/12 04:51:23;;;;;;;20.15;11.32;;;;;;;9.85;100.00;96963.88;5045028;28;20065;-61
2023/05/12 04:53:50;;;;;;;19.35;11.63;;;;;;;9.90;100.00;96963.13;5050617;28;20089;-61
2023/05/12 04:56:17;;;;;;;16.55;10.60;;;;;;;9.99;100.00;96958.06;5042625;28;20091;-60
2023/05/12 04:58:44;;;;;;;17.63;10.63;;;;;;;9.96;100.00;96958.56;5044945;28;20056;-61
2023/05/12 05:01:11;;;;;;;16.33;10.13;;;;;;;9.96;100.00;96959.41;5045930;28;20742;-61
2023/05/12 05:03:38;;;;;;;17.10;9.77;;;;;;;10.00;100.00;96967.81;5045255;28;20045;-61
2023/05/12 05:06:05;;;;;;;17.77;10.25;;;;;;;10.00;100.00;96962.41;5044805;28;20037;-60
2023/05/12 05:08:32;;;;;;;16.50;9.77;;;;;;;10.00;100.00;96965.09;5051082;28;20051;-61
2023/05/12 05:10:58;;;;;;;17.25;9.93;;;;;;;9.99;100.00;96969.69;5047620;28;20558;-61
2023/05/12 05:13:27;;;;;;;15.93;10.00;;;;;;;10.00;100.00;96963.19;5042537;28;20048;-61
2023/05/12 05:15:54;;;;;;;14.07;8.57;;;;;;;10.10;100.00;96965.16;5040274;28;20719;-61
2023/05/12 05:18:23;;;;;;;14.60;9.05;;;;;;;10.06;100.00;96972.16;5039733;28;20056;-61
2023/05/12 05:20:51;;;;;;;15.13;9.35;;;;;;;10.13;100.00;96977.34;5046841;28;20049;-60
2023/05/12 05:23:24;;;;;;;14.23;8.70;;;;;;;10.16;100.00;96976.84;5044988;28;20127;-60
2023/05/12 05:25:51;;;;;;;15.25;9.40;;;;;;;10.28;100.00;96976.66;5040201;28;20041;-61
2023/05/12 05:28:17;;;;;;;15.45;9.05;;;;;;;10.34;100.00;96975.63;5041829;28;20048;-61
2023/05/12 05:30:45;;;;;;;13.35;8.98;;;;;;;10.38;100.00;96975.91;5038173;28;20048;-61
2023/05/12 05:33:12;;;;;;;16.33;9.68;;;;;;;10.27;100.00;96980.44;5043330;28;20102;-60
2023/05/12 05:35:39;;;;;;;15.30;9.38;;;;;;;10.29;100.00;96986.44;5051177;28;20146;-61
2023/05/12 05:38:07;;;;;;;12.98;8.70;;;;;;;10.29;100.00;96983.72;5041752;28;20056;-61
2023/05/12 05:40:34;;;;;;;14.30;8.23;;;;;;;10.23;100.00;96980.16;5039242;28;20045;-60
2023/05/12 05:43:18;;;;;;;13.80;9.18;;;;;;;10.17;100.00;96983.88;5036807;28;20053;-61
2023/05/12 05:45:44;;;;;;;14.23;9.00;;;;;;;10.26;100.00;96978.81;5043269;28;20654;-60
2023/05/12 05:48:11;;;;;;;15.43;9.38;;;;;;;10.27;100.00;96985.84;5045723;28;20048;-61
2023/05/12 05:50:37;;;;;;;17.80;10.10;;;;;;;10.28;100.00;96980.19;5051082;28;20040;-61
2023/05/12 05:53:04;;;;;;;18.20;10.40;;;;;;;10.32;100.00;96988.59;5045613;28;20747;-60
2023/05/12 05:55:31;;;;;;;13.65;9.23;;;;;;;10.46;100.00;96988.19;5048307;28;20036;-60
2023/05/12 05:57:58;;;;;;;14.52;9.23;;;;;;;10.50;100.00;96992.81;5040607;28;20132;-61
2023/05/12 06:00:24;;;;;;;15.60;8.90;;;;;;;10.47;100.00;96987.91;5044894;28;20099;-61
2023/05/12 06:02:51;;;;;;;14.35;8.73;;;;;;;10.43;100.00;96992.19;5048878;28;20052;-61
2023/05/12 06:05:19;;;;;;;16.75;10.15;;;;;;;10.49;100.00;96987.66;5039773;28;20083;-60
2023/05/12 06:07:47;;;;;;;13.23;8.93;;;;;;;10.53;100.00;96994.19;5049600;28;20045;-60
2023/05/12 06:10:13;;;;;;;16.20;9.38;;;;;;;10.43;100.00;96997.59;5046243;28;20055;-60
2023/05/12 06:12:40;;;;;;;14.43;8.95;;;;;;;10.49;100.00;96999.31;5040632;28;20053;-61
2023/05/12 06:15:07;;;;;;;17.35;8.88;;;;;;;10.58;100.00;97001.53;5045933;28;20094;-61
2023/05/12 06:17:33;;;;;;;13.32;9.05;;;;;;;10.64;100.00;96993.19;5041084;28;20033;-60
2023/05/12 06:20:01;;;;;;;14.05;8.57;;;;;;;10.83;100.00;97002.75;5060867;28;20495;-61
2023/05/12 06:22:28;;;;;;;13.77;8.95;;;;;;;10.76;100.00;97009.22;5042193;28;20110;-60
2023/05/12 06:24:54;;;;;;;14.57;8.43;;;;;;;10.79;100.00;97005.16;5013929;28;20068;-60
2023/05/12 06:27:21;;;;;;;14.10;8.65;;;;;;;10.80;100.00;97002.19;5016622;28;20065;-60
2023/05/12 06:29:48;;;;;;;12.82;8.32;;;;;;;11.02;100.00;97008.53;5039918;28;20067;-61
2023/05/12 06:32:14;;;;;;;10.73;7.25;;;;;;;10.98;100.00;97005.53;5040729;28;21603;-60
2023/05/12 06:34:41;;;;;;;13.93;8.30;;;;;;;11.02;100.00;97012.06;5034301;28;20802;-61
2023/05/12 06:37:08;;;;;;;11.98;8.13;;;;;;;11.13;100.00;97012.13;5046038;28;20052;-60
2023/05/12 06:39:34;;;;;;;11.23;7.28;;;;;;;11.13;100.00;97012.13;5043400;28;20048;-60
2023/05/12 06:42:01;;;;;;;12.68;8.52;;;;;;;11.21;100.00;97010.78;5042808;28;20127;-61
2023/05/12 06:44:38;;;;;;;12.07;8.10;;;;;;;11.34;100.00;97013.00;5048682;28;20046;-61
2023/05/12 06:47:07;;;;;;;11.13;7.40;;;;;;;11.48;100.00;97010.59;5046804;28;20124;-61
2023/05/12 06:49:37;;;;;;;10.88;7.22;;;;;;;11.25;100.00;97011.88;5041102;28;20049;-61
2023/05/12 06:52:05;;;;;;;13.35;7.82;;;;;;;11.26;100.00;97011.63;5039310;28;20044;-61
2023/05/12 06:54:31;;;;;;;11.07;6.70;;;;;;;11.37;100.00;97012.47;5043529;28;20677;-61
2023/05/12 06:56:58;;;;;;;12.05;7.13;;;;;;;11.50;100.00;97010.34;5039148;28;20048;-61
2023/05/12 06:59:24;;;;;;;10.02;6.75;;;;;;;11.37;100.00;97017.91;5048936;28;20045;-61
2023/05/12 07:01:51;;;;;;;11.63;7.88;;;;;;;11.61;100.00;97011.19;5043252;28;20098;-61
2023/05/12 07:04:18;;;;;;;10.48;6.68;;;;;;;11.65;100.00;97012.28;5045254;28;20120;-61
2023/05/12 07:06:44;;;;;;;12.60;7.47;;;;;;;11.51;100.00;97015.50;5038305;28;20040;-61
2023/05/12 07:09:11;;;;;;;12.38;7.10;;;;;;;11.65;100.00;97013.06;5039550;28;20048;-61
2023/05/12 07:11:38;;;;;;;12.20;7.00;;;;;;;11.61;100.00;97016.59;5054720;28;20058;-61
2023/05/12 07:14:04;;;;;;;12.05;7.53;;;;;;;11.68;100.00;97017.97;5043171;28;20068;-61
2023/05/12 07:16:31;;;;;;;10.98;7.35;;;;;;;11.80;100.00;97014.22;5044958;28;20132;-60
2023/05/12 07:18:57;;;;;;;10.85;6.82;;;;;;;11.78;100.00;97022.59;5043642;28;20040;-60
2023/05/12 07:21:24;;;;;;;12.23;6.35;;;;;;;11.81;100.00;97013.13;5036780;28;20049;-61
2023/05/12 07:23:51;;;;;;;10.43;7.07;;;;;;;11.93;100.00;97012.84;5026284;28;20060;-62
2023/05/12 07:26:17;;;;;;;9.95;6.22;;;;;;;12.10;100.00;97010.72;5038977;28;20041;-62
2023/05/12 07:28:44;;;;;;;8.07;5.65;;;;;;;11.92;100.00;97012.06;5043211;28;20436;-61
2023/05/12 07:31:10;;;;;;;9.32;5.88;;;;;;;12.07;100.00;97016.72;5044965;28;20637;-61
2023/05/12 07:33:37;;;;;;;9.75;5.70;;;;;;;12.46;100.00;97014.53;5041691;28;20091;-61
2023/05/12 07:36:03;;;;;;;9.57;5.40;;;;;;;12.69;100.00;97004.16;5045972;28;20048;-61
2023/05/12 07:38:30;;;;;;;7.53;4.93;;;;;;;12.68;100.00;97010.69;5038819;28;20045;-61
2023/05/12 07:40:58;;;;;;;8.10;4.63;;;;;;;12.30;100.00;97017.25;5055250;28;20563;-61
2023/05/12 07:43:25;;;;;;;8.07;5.00;;;;;;;12.30;100.00;97019.97;5044558;28;20048;-60
2023/05/12 07:45:51;;;;;;;7.53;4.63;;;;;;;12.35;100.00;97008.31;5059990;28;20717;-60
2023/05/12 07:48:18;;;;;;;7.53;4.78;;;;;;;12.73;98.88;97003.34;5025378;28;20140;-60
2023/05/12 07:50:44;;;;;;;7.60;4.43;;;;;;;13.06;95.25;97010.31;5027680;28;20037;-60
2023/05/12 07:53:11;;;;;;;6.97;4.75;;;;;;;13.19;95.37;97007.00;5052278;28;20052;-60
2023/05/12 07:55:37;;;;;;;7.00;4.28;;;;;;;13.19;99.14;97004.28;5041814;28;20037;-61
2023/05/12 07:58:04;;;;;;;6.75;4.22;;;;;;;13.30;94.80;97005.06;5042108;28;20148;-60
2023/05/12 08:00:30;;;;;;;9.20;4.55;;;;;;;13.49;93.77;96997.09;5048709;28;20559;-61
2023/05/12 08:02:57;;;;;;;6.80;4.60;;;;;;;13.62;91.27;97003.84;5054373;28;20040;-61
2023/05/12 08:05:24;;;;;;;7.03;4.50;;;;;;;13.56;91.45;97007.69;5045688;28;20056;-61
2023/05/12 08:07:51;;;;;;;6.22;3.50;;;;;;;13.65;89.42;97003.25;5045219;28;20044;-61
2023/05/12 08:10:18;;;;;;;6.10;3.60;;;;;;;13.82;87.62;97004.81;5045983;28;20115;-62
2023/05/12 08:12:45;;;;;;;6.22;4.10;;;;;;;13.95;86.52;97008.81;5043173;28;20052;-62
2023/05/12 08:15:12;;;;;;;6.07;3.75;;;;;;;13.64;88.46;97003.56;5043940;28;20033;-61
2023/05/12 08:17:38;;;;;;;6.45;4.25;;;;;;;13.54;89.80;97007.16;5045852;28;20766;-61
2023/05/12 08:20:05;;;;;;;8.40;3.60;;;;;;;13.78;88.08;97010.00;5050739;28;20048;-61
2023/05/12 08:22:32;;;;;;;6.25;3.80;;;;;;;13.65;87.30;97008.72;5050341;28;20059;-61
2023/05/12 08:24:58;;;;;;;6.60;3.55;;;;;;;13.73;86.49;97004.59;5048974;28;20090;-61
2023/05/12 08:27:25;;;;;;;7.57;4.50;;;;;;;13.49;88.47;97008.00;5052890;28;20681;-62
2023/05/12 08:29:52;;;;;;;5.60;3.65;;;;;;;13.69;89.02;97005.44;5039754;28;20512;-61
2023/05/12 08:32:18;;;;;;;5.47;3.70;;;;;;;13.73;88.72;97007.31;5045294;28;20041;-62
2023/05/12 08:34:45;;;;;;;6.57;3.78;;;;;;;13.84;86.93;97010.78;5052030;28;20041;-62
2023/05/12 08:37:11;;;;;;;5.47;3.75;;;;;;;14.00;85.74;97008.78;5054585;28;20135;-62
2023/05/12 08:39:38;;;;;;;7.65;4.78;;;;;;;13.89;86.52;97004.47;5044615;28;20110;-62
2023/05/12 08:42:09;;;;;;;5.28;3.40;;;;;;;13.90;86.89;97011.56;5036622;28;20056;-62
2023/05/12 08:44:36;;;;;;;5.55;2.92;;;;;;;14.03;85.44;97012.81;5039404;28;20535;-62
2023/05/12 08:47:04;;;;;;;5.03;2.50;;;;;;;14.21;82.62;97008.63;5051622;28;20501;-62
2023/05/12 08:49:34;;;;;;;5.53;3.25;;;;;;;13.93;84.48;97016.44;5035018;28;20704;-62
2023/05/12 08:52:01;;;;;;;6.25;2.95;;;;;;;14.17;83.31;97018.44;5041736;28;20120;-62
2023/05/12 08:54:28;;;;;;;6.38;3.13;;;;;;;14.19;83.01;97016.25;5047675;28;20074;-62
2023/05/12 08:56:56;;;;;;;4.32;3.00;;;;;;;13.91;83.73;97021.34;5049891;28;20115;-62
2023/05/12 08:59:25;;;;;;;5.78;3.08;;;;;;;13.86;84.52;97024.13;5045588;28;20048;-61
2023/05/12 09:01:53;;;;;;;6.40;3.00;;;;;;;13.94;85.29;97020.81;5034612;28;20053;-62
2023/05/12 09:04:20;;;;;;;5.05;2.83;;;;;;;13.85;84.87;97023.28;5045559;28;20053;-61
2023/05/12 09:06:47;;;;;;;4.03;2.20;;;;;;;13.93;81.87;97015.63;5043771;28;20688;-61
2023/05/12 09:09:16;;;;;;;3.75;1.92;;;;;;;14.05;80.93;97018.81;5042888;28;20084;-61
2023/05/12 09:11:43;;;;;;;2.80;1.58;;;;;;;13.99;79.51;97018.03;5042154;28;20064;-61
2023/05/12 09:14:22;;;;;;;3.47;1.80;;;;;;;14.46;78.67;97019.56;5046046;28;20037;-61
2023/05/12 09:16:56;;;;;;;4.47;1.60;;;;;;;14.58;76.88;97020.00;5046852;28;20102;-62
2023/05/12 09:19:23;;;;;;;3.10;1.77;;;;;;;14.87;77.46;97023.84;5053643;28;20123;-62
2023/05/12 09:21:51;;;;;;;4.75;1.90;;;;;;;15.16;75.98;97007.47;5045364;28;20059;-62
2023/05/12 09:24:17;;;;;;;3.80;2.05;;;;;;;15.21;77.40;97014.75;5046325;28;20169;-62
2023/05/12 09:26:48;;;;;;;3.60;1.92;;;;;;;15.41;75.07;97016.41;5042333;28;20036;-62
2023/05/12 09:29:16;;;;;;;3.80;2.20;;;;;;;15.17;74.29;97008.25;5042843;28;20049;-62
2023/05/12 09:31:58;;;;;;;3.95;2.33;;;;;;;14.89;76.82;97017.00;5051520;28;20043;-62
2023/05/12 09:34:39;;;;;;;4.72;2.60;;;;;;;14.54;79.42;97016.22;5035989;28;20072;-61
2023/05/12 09:37:06;;;;;;;4.80;3.00;;;;;;;14.26;80.65;97018.66;5036215;28;20033;-62
2023/05/12 09:39:33;;;;;;;4.40;2.78;;;;;;;14.37;81.18;97020.19;5040858;28;20634;-62
2023/05/12 09:42:00;;;;;;;4.28;2.90;;;;;;;14.44;80.46;97023.41;5043672;28;20044;-62
2023/05/12 09:44:29;;;;;;;4.30;2.50;;;;;;;14.22;82.66;97009.44;5044510;28;20699;-62
2023/05/12 09:47:05;;;;;;;4.90;3.08;;;;;;;13.92;83.15;97017.53;5043813;28;20037;-61
2023/05/12 09:49:31;;;;;;;5.32;3.35;;;;;;;13.68;86.56;97011.97;5050962;28;20076;-61
2023/05/12 09:51:58;;;;;;;5.93;3.70;;;;;;;13.57;87.70;97012.03;5043081;28;20033;-62
2023/05/12 09:54:29;;;;;;;5.22;3.33;;;;;;;13.44;87.79;97024.31;5043196;28;20037;-61
2023/05/12 09:56:58;;;;;;;5.93;3.50;;;;;;;13.10;88.88;97022.25;5038974;28;20114;-61
2023/05/12 09:59:31;;;;;;;7.40;4.30;;;;;;;13.05;89.84;97023.09;5041641;28;20056;-62
2023/05/12 10:02:00;;;;;;;5.70;3.28;;;;;;;13.05;89.22;97019.56;5036940;28;20137;-62
2023/05/12 10:04:31;;;;;;;5.32;3.10;;;;;;;13.03;88.34;97025.28;5042688;28;20523;-62
2023/05/12 10:06:58;;;;;;;6.87;4.50;;;;;;;13.18;88.64;97020.88;5041647;28;20043;-60
2023/05/12 10:09:30;;;;;;;6.63;3.88;;;;;;;13.29;89.31;97017.03;5043283;28;20081;-62
2023/05/12 10:11:57;;;;;;;7.60;3.20;;;;;;;13.30;88.78;97020.56;5040297;28;20046;-62
2023/05/12 10:14:24;;;;;;;5.15;3.17;;;;;;;13.44;86.99;97024.31;5041450;28;20041;-62
2023/05/12 10:16:51;;;;;;;4.32;2.53;;;;;;;13.47;87.43;97012.88;5042565;28;20037;-61
2023/05/12 10:19:19;;;;;;;7.68;4.07;;;;;;;13.63;86.94;97018.25;5037198;28;20047;-61
2023/05/12 10:21:46;;;;;;;4.55;2.88;;;;;;;14.07;84.90;97027.50;5046264;28;20128;-62
2023/05/12 10:24:16;;;;;;;7.35;3.92;;;;;;;14.20;83.39;97025.22;5049013;28;20113;-62
2023/05/12 10:26:43;;;;;;;8.60;3.47;;;;;;;14.20;82.49;97022.50;5054906;28;20432;-62
2023/05/12 10:29:11;;;;;;;5.00;3.05;;;;;;;14.48;81.06;97020.91;5043093;28;20540;-62
2023/05/12 10:31:38;;;;;;;6.80;2.80;;;;;;;14.68;79.67;97027.28;5050733;28;20051;-61
2023/05/12 10:34:05;;;;;;;5.00;2.83;;;;;;;14.98;76.52;97019.09;5047790;28;20133;-62
2023/05/12 10:36:44;;;;;;;4.47;2.95;;;;;;;15.50;74.79;97015.75;5047619;28;20061;-61
2023/05/12 10:39:13;;;;;;;4.20;2.60;;;;;;;15.41;73.91;97019.13;5042583;28;20119;-61
2023/05/12 10:41:41;;;;;;;3.80;2.42;;;;;;;15.46;73.79;97015.53;5045360;28;20045;-62
2023/05/12 10:44:09;;;;;;;3.90;2.35;;;;;;;15.83;74.95;97016.69;5048646;28;20424;-61
2023/05/12 10:46:36;;;;;;;3.53;2.30;;;;;;;16.07;70.93;97009.53;5046290;28;20586;-62
2023/05/12 10:49:07;;;;;;;3.80;2.67;;;;;;;16.27;72.46;97008.41;5039675;28;20041;-63
2023/05/12 10:51:43;;;;;;;4.70;2.20;;;;;;;16.14;71.57;97007.22;5055142;28;20048;-62
2023/05/12 10:54:17;;;;;;;5.82;3.17;;;;;;;16.50;70.13;97006.66;5054069;28;20116;-62
2023/05/12 10:56:44;;;;;;;6.47;2.95;;;;;;;15.90;72.60;97005.38;5042158;28;20033;-62
2023/05/12 10:59:17;;;;;;;9.82;4.65;;;;;;;15.85;74.17;97006.25;5040384;28;20543;-62
2023/05/12 11:01:57;;;;;;;4.45;2.63;;;;;;;16.02;72.74;96995.94;5041293;28;20071;-62
2023/05/12 11:04:46;;;;;;;5.00;2.63;;;;;;;15.59;74.35;97006.63;5040843;28;20508;-61
2023/05/12 11:07:18;;;;;;;3.60;2.22;;;;;;;15.70;74.54;97004.56;5039060;28;20295;-61
2023/05/12 11:09:46;;;;;;;4.93;2.45;;;;;;;15.44;75.65;97009.56;5040525;28;20044;-62
2023/05/12 11:12:26;;;;;;;5.10;2.97;;;;;;;14.74;76.59;97014.44;5041909;28;20044;-62
2023/05/12 11:14:52;;;;;;;4.53;2.78;;;;;;;14.47;77.12;97007.56;5044559;28;20048;-61
2023/05/12 11:17:19;;;;;;;4.47;2.50;;;;;;;14.43;78.32;97012.78;5059112;28;20029;-61
2023/05/12 11:19:48;;;;;;;4.40;2.63;;;;;;;14.70;78.31;97011.44;5044858;28;20048;-62
2023/05/12 11:22:20;;;;;;;4.68;3.08;;;;;;;14.61;77.92;97019.44;5049090;28;20060;-61
2023/05/12 11:24:48;;;;;;;4.32;2.58;;;;;;;14.52;77.59;97015.72;5041777;28;20041;-61
2023/05/12 11:27:16;;;;;;;5.22;3.60;;;;;;;14.70;78.73;97022.34;5047519;28;20500;-61
2023/05/12 11:29:45;;;;;;;5.20;3.20;;;;;;;14.93;79.21;97020.78;5054027;28;20475;-60